Accueil
METAR-TAF:

METAR-TAF

Aéroports :

Aéroport de Weeze

Weeze, Allemagne

latitude: 51-36-09N, longitude: 006-08-32E, altitude: 32 m

Observation

Le bulletin a été fait il y a 20 minutes, à 06:50 UTC
Vent 8 kt de ouest
Température 14°C
Humidité 77%
Pression 1010 hPa
Visibilité 10 km ou plus
pas de nuages en-dessous de 1500 mètres et pas de cumulonimbus.

METAR: EDLV 270650Z 28008KT CAVOK 14/10 Q1010

Heure: 09:10 (07:10 UTC)

Prévision

Le bulletin a été fait il y a 2 heures et 10 minutes, à 05:00 UTC
Prévision valable du 27 à 06 UTC au 28 à 06 UTC
Vent 5 kt de sud-ouest
Visibilité 10 km ou plus
Nuages épars à une hauteur de 3500 ft
Evoluant progressivement
du 27 à 06 UTC au 27 à 09 UTC
Vent 10 kt de ouest
Evoluant progressivement
du 27 à 17 UTC au 27 à 20 UTC
Vent 3 kt de ouest/sud-ouest

TAF: EDLV 270500Z 2706/2806 22005KT 9999 SCT035 BECMG 2706/2709 27010KT BECMG 2717/2720 24003KT

Observations et prévisions météorologiques de plus de 4000 aéroports (messages METAR et TAF).

Les stations disponibles sont représentées par des disques jaunes et rouges sur la carte.

Passer la souris dessus pour voir le nom de la station.

Cliquer dessus pour voir les observations et prévisions météorologiques.

Pour changer de carte: cliquez sur les boutons verts avec une croix noire pour zoomer, sur le bouton vert avec un tiret pour effectuer un zoom arrière, ou sur les flèches vertes pour les cartes adjacentes.


METAR-TAF: